Time;durP1;ratioP1;P1;durP2;ratioP2;P2;SDS_P1;SDS_P2;PMS_P1;PMS_P2;Temp;Humidity;BMP_temperature;BMP_pressure;BME280_temperature;BME280_humidity;BME280_pressure;Samples;Min_cycle;Max_cycle;Signal;HPM_P1;HPM_P2
2022/09/24 00:00:54;;;;;;;15.77;9.90;;;13.00;1.00;;;;;;5047426;28;20475;-54
2022/09/24 00:03:21;;;;;;;19.95;10.48;;;13.00;1.00;;;;;;5048748;28;20390;-56
2022/09/24 00:05:47;;;;;;;18.40;10.90;;;12.90;1.00;;;;;;5030171;28;20398;-56
2022/09/24 00:08:14;;;;;;;19.42;10.60;;;13.00;1.00;;;;;;5051267;28;20385;-56
2022/09/24 00:10:41;;;;;;;17.67;10.18;;;13.00;1.00;;;;;;5051671;28;20374;-54
2022/09/24 00:13:11;;;;;;;18.92;10.50;;;13.10;1.00;;;;;;5052459;28;20409;-54
2022/09/24 00:15:42;;;;;;;16.45;10.05;;;13.10;1.00;;;;;;5051793;28;20458;-54
2022/09/24 00:18:10;;;;;;;17.75;9.60;;;13.20;1.00;;;;;;5052166;28;20400;-56
2022/09/24 00:20:37;;;;;;;17.83;10.57;;;13.30;1.00;;;;;;5052082;28;20466;-56
2022/09/24 00:23:05;;;;;;;19.80;10.57;;;13.40;1.00;;;;;;5051343;28;20554;-56
2022/09/24 00:28:15;;;;;;;15.65;9.80;;;13.20;1.00;;;;;;5052153;28;20408;-55
2022/09/24 00:30:42;;;;;;;15.85;9.52;;;13.10;1.00;;;;;;5050427;28;20898;-53
2022/09/24 00:33:08;;;;;;;21.15;10.93;;;13.10;1.00;;;;;;5051384;28;20754;-54
2022/09/24 00:35:36;;;;;;;13.95;9.40;;;13.10;1.00;;;;;;5051669;28;20381;-54
2022/09/24 00:38:02;;;;;;;18.05;10.00;;;13.20;1.00;;;;;;5050974;28;20381;-54
2022/09/24 00:40:33;;;;;;;15.82;9.77;;;13.30;1.00;;;;;;5051714;28;20512;-53
2022/09/24 00:42:59;;;;;;;17.90;9.70;;;13.20;1.00;;;;;;5050926;28;21057;-54
2022/09/24 00:45:28;;;;;;;15.90;9.60;;;13.20;1.00;;;;;;5051813;28;20389;-55
2022/09/24 00:47:54;;;;;;;15.52;9.20;;;13.20;1.00;;;;;;5050667;28;20393;-54
2022/09/24 00:50:31;;;;;;;15.95;9.32;;;13.10;1.00;;;;;;5051379;28;20392;-53
2022/09/24 00:53:05;;;;;;;14.93;9.70;;;13.10;1.00;;;;;;5032916;28;20538;-54
2022/09/24 00:55:33;;;;;;;15.15;9.25;;;13.20;1.00;;;;;;5050942;28;20385;-54
2022/09/24 00:58:02;;;;;;;16.42;9.20;;;13.20;1.00;;;;;;5050433;28;21003;-54
2022/09/24 01:00:29;;;;;;;17.90;9.88;;;13.30;1.00;;;;;;5051217;28;20471;-54
2022/09/24 01:03:12;;;;;;;16.05;10.20;;;13.40;1.00;;;;;;5050404;28;20491;-56
2022/09/24 01:05:38;;;;;;;14.15;9.57;;;13.40;1.00;;;;;;5050876;28;20911;-56
2022/09/24 01:08:05;;;;;;;17.20;9.33;;;13.40;1.00;;;;;;5050791;28;20385;-56
2022/09/24 01:10:46;;;;;;;17.25;9.80;;;13.30;1.00;;;;;;5050806;28;20386;-56
2022/09/24 01:13:40;;;;;;;14.60;9.13;;;13.20;1.00;;;;;;5051080;28;20497;-56
2022/09/24 01:16:37;;;;;;;17.17;10.20;;;13.00;1.00;;;;;;5049229;28;20814;-54
2022/09/24 01:19:27;;;;;;;16.50;9.50;;;12.80;19.90;;;;;;5028619;28;20487;-53
2022/09/24 01:22:00;;;;;;;17.15;10.13;;;12.80;30.00;;;;;;5050082;28;20392;-54
2022/09/24 01:24:59;;;;;;;18.83;10.30;;;12.80;35.50;;;;;;5050971;28;20392;-55
2022/09/24 01:27:55;;;;;;;17.67;10.32;;;12.90;42.00;;;;;;5050623;28;20386;-53
2022/09/24 01:30:21;;;;;;;19.30;10.80;;;12.80;56.60;;;;;;5050255;28;20401;-56
2022/09/24 01:32:52;;;;;;;17.30;10.23;;;12.90;36.90;;;;;;5049851;28;20431;-56
2022/09/24 01:35:27;;;;;;;17.67;10.80;;;12.90;31.20;;;;;;5050281;28;20819;-56
2022/09/24 01:38:13;;;;;;;16.23;9.73;;;12.90;50.00;;;;;;5050004;28;20381;-56
2022/09/24 01:40:41;;;;;;;20.58;10.43;;;12.90;25.30;;;;;;5050311;28;20450;-56
2022/09/24 01:43:08;;;;;;;21.20;10.80;;;12.80;29.20;;;;;;5050126;28;20873;-54
2022/09/24 01:45:37;;;;;;;17.05;9.93;;;12.80;26.00;;;;;;5050138;28;20392;-54
2022/09/24 01:48:04;;;;;;;18.15;10.35;;;12.70;46.20;;;;;;5049008;28;20931;-54
2022/09/24 01:50:37;;;;;;;17.13;10.27;;;12.70;31.70;;;;;;5050145;28;20436;-53
2022/09/24 01:53:18;;;;;;;17.60;10.20;;;12.70;26.00;;;;;;5049021;28;20917;-56
2022/09/24 01:55:52;;;;;;;17.98;10.60;;;12.60;23.80;;;;;;5049332;28;20385;-53
2022/09/24 01:58:36;;;;;;;19.75;11.75;;;12.50;49.50;;;;;;5050150;28;20477;-53
2022/09/24 02:01:09;;;;;;;18.08;11.20;;;12.40;79.50;;;;;;5049388;28;20419;-54
2022/09/24 02:03:42;;;;;;;17.52;10.05;;;12.30;99.90;;;;;;5050099;28;20389;-53
2022/09/24 02:06:13;;;;;;;17.90;10.70;;;12.40;99.90;;;;;;5049715;28;20388;-54
2022/09/24 02:08:45;;;;;;;17.00;10.43;;;12.40;99.90;;;;;;5049496;28;20381;-53
2022/09/24 02:11:15;;;;;;;17.42;10.45;;;12.30;99.90;;;;;;5050066;28;20472;-53
2022/09/24 02:13:50;;;;;;;17.23;10.65;;;12.30;99.90;;;;;;5049589;28;20436;-54
2022/09/24 02:16:21;;;;;;;16.10;9.30;;;12.30;95.80;;;;;;5049602;28;20401;-54
2022/09/24 02:18:51;;;;;;;17.08;9.60;;;12.30;99.90;;;;;;5049029;28;20898;-54
2022/09/24 02:21:19;;;;;;;17.83;10.20;;;12.30;99.90;;;;;;5049704;28;20439;-53
2022/09/24 02:23:55;;;;;;;17.70;11.07;;;12.40;99.90;;;;;;5048651;28;20377;-54
2022/09/24 02:26:20;;;;;;;21.52;11.27;;;12.40;99.90;;;;;;5049416;28;20393;-53
2022/09/24 02:28:46;;;;;;;18.93;10.67;;;12.40;96.00;;;;;;5048451;28;20877;-54
2022/09/24 02:31:27;;;;;;;18.85;10.65;;;12.50;99.90;;;;;;5031235;28;20455;-54
2022/09/24 02:36:38;;;;;;;17.48;10.40;;;12.50;61.90;;;;;;5049556;28;20376;-53
2022/09/24 02:39:04;;;;;;;16.73;9.90;;;12.40;55.20;;;;;;5049062;28;20411;-54
2022/09/24 02:41:30;;;;;;;17.35;10.00;;;12.40;82.20;;;;;;5049232;28;20381;-54
2022/09/24 02:43:57;;;;;;;17.30;9.82;;;12.50;87.30;;;;;;5048788;28;20657;-54
2022/09/24 02:46:23;;;;;;;18.25;10.10;;;12.50;70.20;;;;;;5049154;28;20485;-54
2022/09/24 02:48:49;;;;;;;19.25;10.52;;;12.60;49.80;;;;;;5048813;28;20427;-54
2022/09/24 02:51:15;;;;;;;15.57;9.60;;;12.70;24.00;;;;;;5049362;28;20417;-54
2022/09/24 02:53:40;;;;;;;17.15;10.50;;;12.50;13.60;;;;;;5049024;28;20421;-53
2022/09/24 02:56:06;;;;;;;16.43;11.30;;;12.40;34.80;;;;;;5049217;28;20831;-53
2022/09/24 02:58:33;;;;;;;21.20;11.60;;;12.30;52.70;;;;;;5049118;28;20385;-53
2022/09/24 03:00:59;;;;;;;19.03;11.63;;;12.50;62.90;;;;;;5048693;28;20393;-53
2022/09/24 03:03:25;;;;;;;17.88;10.60;;;12.40;99.70;;;;;;5049319;28;20386;-53
2022/09/24 03:05:53;;;;;;;17.55;11.23;;;12.50;99.90;;;;;;5048530;28;20394;-53
2022/09/24 03:08:23;;;;;;;15.80;10.20;;;12.60;96.20;;;;;;5049112;28;20882;-53
2022/09/24 03:10:50;;;;;;;18.70;10.18;;;12.60;90.70;;;;;;5048444;28;20392;-54
2022/09/24 03:13:16;;;;;;;23.23;10.88;;;12.60;90.50;;;;;;5049088;28;20405;-53
2022/09/24 03:15:43;;;;;;;16.17;10.10;;;12.80;94.80;;;;;;5048483;28;20385;-54
2022/09/24 03:18:09;;;;;;;19.20;10.20;;;12.80;39.10;;;;;;5048820;28;20388;-54
2022/09/24 03:20:35;;;;;;;18.63;11.20;;;12.70;40.20;;;;;;5048559;28;20382;-53
2022/09/24 03:23:00;;;;;;;18.08;11.10;;;12.80;43.20;;;;;;5048023;28;20871;-53
2022/09/24 03:25:26;;;;;;;16.90;10.53;;;12.80;33.90;;;;;;5048697;28;20409;-53
2022/09/24 03:27:52;;;;;;;16.77;10.23;;;12.80;12.40;;;;;;5048312;28;20722;-53
2022/09/24 03:33:02;;;;;;;18.02;11.07;;;12.80;17.40;;;;;;5048088;28;20404;-53
2022/09/24 03:35:27;;;;;;;20.20;11.18;;;12.80;23.90;;;;;;5049375;28;20378;-53
2022/09/24 03:37:53;;;;;;;21.17;11.73;;;12.80;45.60;;;;;;5047927;28;20388;-54
2022/09/24 03:40:18;;;;;;;19.37;12.30;;;12.90;21.70;;;;;;5048972;28;20439;-53
2022/09/24 03:42:44;;;;;;;18.10;11.87;;;13.00;7.80;;;;;;5051665;28;20746;-53
2022/09/24 03:45:10;;;;;;;20.85;12.80;;;12.80;23.60;;;;;;5052735;28;20476;-54
2022/09/24 03:47:36;;;;;;;19.47;11.80;;;12.80;31.20;;;;;;5052495;28;20381;-53
2022/09/24 03:50:02;;;;;;;19.58;12.18;;;12.90;16.30;;;;;;5052139;28;20378;-54
2022/09/24 03:52:28;;;;;;;18.35;11.15;;;12.80;18.40;;;;;;5052603;28;20731;-53
2022/09/24 03:54:54;;;;;;;20.88;12.50;;;12.70;52.00;;;;;;5051488;28;21179;-53
2022/09/24 03:57:19;;;;;;;19.53;12.17;;;12.70;93.70;;;;;;5052483;28;20378;-54
2022/09/24 03:59:46;;;;;;;21.00;12.30;;;12.70;87.10;;;;;;5051588;28;20926;-53
2022/09/24 04:02:11;;;;;;;18.92;11.75;;;12.60;99.90;;;;;;5056068;28;20396;-53
2022/09/24 04:04:37;;;;;;;21.80;13.07;;;12.60;99.90;;;;;;5065561;28;20392;-53
2022/09/24 04:07:04;;;;;;;20.88;12.40;;;12.60;99.90;;;;;;5055352;28;20384;-53
2022/09/24 04:09:30;;;;;;;21.35;12.18;;;12.70;94.90;;;;;;5071773;28;20379;-53
2022/09/24 04:11:55;;;;;;;21.17;12.63;;;12.60;99.90;;;;;;5071322;28;20764;-53
2022/09/24 04:14:21;;;;;;;20.75;12.70;;;12.60;99.90;;;;;;5056330;28;20476;-53
2022/09/24 04:16:47;;;;;;;20.52;12.68;;;12.70;99.90;;;;;;5051471;28;20403;-54
2022/09/24 04:19:17;;;;;;;19.23;12.20;;;12.90;93.60;;;;;;5052111;28;20378;-53
2022/09/24 04:21:43;;;;;;;19.70;13.00;;;12.90;66.20;;;;;;5051542;28;20385;-54
2022/09/24 04:24:10;;;;;;;20.27;12.65;;;12.90;42.40;;;;;;5051530;28;20389;-53
2022/09/24 04:26:35;;;;;;;20.65;12.73;;;12.90;42.70;;;;;;5051962;28;20378;-53
2022/09/24 04:29:01;;;;;;;21.70;13.93;;;12.80;57.70;;;;;;5050921;28;20408;-53
2022/09/24 04:31:27;;;;;;;24.88;12.30;;;12.80;55.20;;;;;;5051552;28;20381;-53
2022/09/24 04:33:53;;;;;;;23.20;13.33;;;12.70;60.70;;;;;;5050895;28;20386;-53
2022/09/24 04:36:19;;;;;;;21.75;12.82;;;12.70;99.90;;;;;;5051860;28;20389;-53
2022/09/24 04:38:47;;;;;;;21.55;12.80;;;12.70;99.90;;;;;;5051128;28;20390;-54
2022/09/24 04:41:15;;;;;;;19.88;12.00;;;12.70;99.90;;;;;;5051696;28;20390;-53
2022/09/24 04:43:41;;;;;;;19.67;12.37;;;12.60;99.90;;;;;;5051454;28;20386;-53
2022/09/24 04:46:08;;;;;;;19.70;13.00;;;12.70;99.90;;;;;;5050957;28;20393;-55
2022/09/24 04:48:37;;;;;;;22.13;13.38;;;12.60;99.90;;;;;;5051303;28;20378;-53
2022/09/24 04:51:04;;;;;;;20.98;13.13;;;12.60;99.90;;;;;;5050838;28;20461;-54
2022/09/24 04:53:31;;;;;;;21.90;12.20;;;12.60;99.90;;;;;;5050629;28;20413;-53
2022/09/24 04:55:58;;;;;;;21.87;13.27;;;12.60;99.90;;;;;;5050780;28;20451;-54
2022/09/24 04:58:24;;;;;;;24.70;13.17;;;12.60;99.90;;;;;;5051380;28;20493;-53
2022/09/24 05:00:50;;;;;;;22.20;12.73;;;12.60;99.90;;;;;;5049920;28;20389;-53
2022/09/24 05:03:16;;;;;;;20.05;12.45;;;12.60;99.90;;;;;;5051374;28;20403;-54
2022/09/24 05:05:42;;;;;;;20.77;12.70;;;12.70;99.90;;;;;;5051293;28;20386;-54
2022/09/24 05:08:07;;;;;;;20.13;13.10;;;12.70;99.90;;;;;;5050765;28;20731;-54
2022/09/24 05:10:33;;;;;;;22.17;12.73;;;12.70;99.90;;;;;;5051210;28;20389;-54
2022/09/24 05:12:59;;;;;;;21.43;13.43;;;12.80;99.90;;;;;;5050361;28;20416;-54
2022/09/24 05:15:25;;;;;;;20.60;12.27;;;12.80;99.90;;;;;;5050937;28;20855;-54
2022/09/24 05:17:51;;;;;;;22.15;13.32;;;12.80;99.90;;;;;;5050644;28;20435;-54
2022/09/24 05:20:16;;;;;;;25.57;13.50;;;12.70;99.90;;;;;;5051182;28;20898;-54
2022/09/24 05:22:48;;;;;;;20.63;11.80;;;12.80;99.90;;;;;;5050641;28;20393;-54
2022/09/24 05:25:16;;;;;;;22.35;12.13;;;12.80;99.90;;;;;;5050891;28;20846;-54
2022/09/24 05:27:46;;;;;;;22.15;12.75;;;12.60;99.90;;;;;;5050901;28;20456;-54
2022/09/24 05:30:13;;;;;;;20.58;13.07;;;12.60;99.90;;;;;;5032769;28;20877;-54
2022/09/24 05:32:39;;;;;;;21.17;12.57;;;12.60;99.90;;;;;;5050795;28;20460;-54
2022/09/24 05:35:07;;;;;;;18.95;11.70;;;12.60;99.90;;;;;;5050228;28;20472;-55
2022/09/24 05:37:33;;;;;;;20.55;12.55;;;12.70;99.90;;;;;;5050646;28;20373;-55
2022/09/24 05:40:46;;;;;;;21.17;12.77;;;12.70;99.90;;;;;;5049824;28;20374;-55
2022/09/24 05:42:45;;;;;;;20.38;12.52;;;12.70;99.90;;;;;;5064353;28;20391;-55
2022/09/24 05:45:12;;;;;;;19.83;12.43;;;12.70;99.90;;;;;;5064530;28;20605;-55
2022/09/24 05:47:37;;;;;;;18.03;12.20;;;12.70;99.90;;;;;;5065713;28;20399;-55
2022/09/24 05:50:03;;;;;;;19.95;12.50;;;12.60;99.90;;;;;;5065578;28;20998;-55
2022/09/24 05:52:29;;;;;;;24.13;12.87;;;12.70;99.90;;;;;;5070094;28;20423;-55
2022/09/24 05:54:55;;;;;;;19.35;13.05;;;12.80;99.90;;;;;;5069546;28;20390;-55
2022/09/24 05:57:20;;;;;;;23.73;13.70;;;12.70;99.90;;;;;;5069961;28;20376;-55
2022/09/24 05:59:46;;;;;;;18.70;11.73;;;12.80;99.90;;;;;;5069543;28;20718;-55
2022/09/24 06:02:11;;;;;;;19.37;12.10;;;13.00;99.90;;;;;;5069982;28;20387;-55
2022/09/24 06:04:37;;;;;;;19.23;12.57;;;13.00;99.90;;;;;;5061508;28;20404;-55
2022/09/24 06:07:03;;;;;;;19.77;13.32;;;13.10;99.90;;;;;;5069939;28;20994;-55
2022/09/24 06:09:28;;;;;;;22.55;12.25;;;13.10;92.30;;;;;;5058538;28;20417;-54
2022/09/24 06:11:55;;;;;;;20.90;12.80;;;13.30;89.50;;;;;;5059206;28;20406;-54
2022/09/24 06:14:20;;;;;;;21.47;12.47;;;13.50;39.60;;;;;;5069502;28;20880;-53
2022/09/24 06:16:46;;;;;;;23.92;13.05;;;13.50;1.00;;;;;;5055064;28;20424;-54
2022/09/24 06:19:12;;;;;;;19.90;12.63;;;13.60;1.00;;;;;;5056738;28;20445;-54
2022/09/24 06:21:37;;;;;;;20.30;12.93;;;13.70;1.00;;;;;;5059404;28;20394;-54
2022/09/24 06:24:03;;;;;;;21.60;12.70;;;13.60;1.00;;;;;;5060899;28;20979;-54
2022/09/24 06:26:29;;;;;;;19.48;12.30;;;13.60;1.00;;;;;;5048807;28;20385;-54
2022/09/24 06:28:55;;;;;;;33.60;12.37;;;14.00;1.00;;;;;;5057909;28;20455;-54
2022/09/24 06:31:21;;;;;;;20.58;12.20;;;13.50;1.00;;;;;;5059066;28;20801;-54
2022/09/24 06:33:46;;;;;;;19.73;12.07;;;13.50;1.00;;;;;;5053408;28;20422;-55
2022/09/24 06:36:14;;;;;;;19.15;12.57;;;13.60;2.00;;;;;;5053751;28;21378;-54
2022/09/24 06:38:40;;;;;;;20.50;12.68;;;13.70;3.60;;;;;;5068870;28;20475;-54
2022/09/24 06:41:06;;;;;;;21.17;11.98;;;13.90;1.00;;;;;;5065420;28;21060;-54
2022/09/24 06:43:33;;;;;;;21.33;12.00;;;14.00;1.00;;;;;;5055293;28;20486;-53
2022/09/24 06:45:59;;;;;;;18.70;10.47;;;14.20;1.00;;;;;;5059636;28;20388;-54
2022/09/24 06:48:26;;;;;;;20.40;10.90;;;14.00;1.00;;;;;;5064758;28;20407;-54
2022/09/24 06:50:53;;;;;;;18.73;11.55;;;14.00;1.00;;;;;;5059100;28;20391;-54
2022/09/24 06:53:19;;;;;;;17.42;10.73;;;14.20;1.00;;;;;;5048908;28;20437;-54
2022/09/24 06:55:45;;;;;;;16.95;10.70;;;14.40;1.00;;;;;;5048850;28;20488;-54
2022/09/24 06:58:14;;;;;;;17.83;10.60;;;14.70;1.00;;;;;;5063999;28;20516;-54
2022/09/24 07:00:40;;;;;;;17.35;10.15;;;14.70;1.00;;;;;;5063293;28;20465;-54
2022/09/24 07:03:11;;;;;;;17.08;10.55;;;14.70;1.00;;;;;;5067048;28;20893;-54
2022/09/24 07:05:37;;;;;;;17.23;10.73;;;14.70;1.00;;;;;;5057258;28;20414;-54
2022/09/24 07:08:02;;;;;;;16.35;10.95;;;14.60;1.00;;;;;;5067596;28;20387;-54
2022/09/24 07:10:28;;;;;;;17.10;10.40;;;14.90;1.00;;;;;;5057391;28;20444;-54
2022/09/24 07:12:54;;;;;;;16.77;9.60;;;15.00;99.90;;;;;;5062162;28;20872;-54
2022/09/24 07:15:19;;;;;;;17.58;10.85;;;15.10;99.90;;;;;;5056571;28;20422;-54
2022/09/24 07:17:45;;;;;;;17.03;10.03;;;15.00;99.90;;;;;;5057124;28;20395;-55
2022/09/24 07:20:10;;;;;;;15.90;9.33;;;15.10;99.90;;;;;;5060402;28;20403;-55
2022/09/24 07:22:41;;;;;;;15.27;9.90;;;15.20;26.70;;;;;;5063132;28;20848;-55
2022/09/24 07:25:09;;;;;;;16.27;10.10;;;15.20;58.50;;;;;;5063286;28;20432;-55
2022/09/24 07:27:35;;;;;;;19.07;9.93;;;15.20;85.70;;;;;;5061247;28;20383;-55
2022/09/24 07:30:01;;;;;;;15.05;9.63;;;15.20;83.10;;;;;;5064712;28;20431;-55
2022/09/24 07:32:26;;;;;;;13.82;9.20;;;15.30;38.90;;;;;;5062055;28;20511;-55
2022/09/24 07:34:53;;;;;;;16.40;9.30;;;15.30;99.90;;;;;;5064126;28;20408;-55
2022/09/24 07:37:19;;;;;;;15.70;9.07;;;15.50;1.00;;;;;;5060869;28;20392;-55
2022/09/24 07:39:44;;;;;;;15.90;9.40;;;15.50;99.90;;;;;;5066975;28;20399;-55
2022/09/24 07:42:10;;;;;;;15.25;8.82;;;15.50;1.00;;;;;;5057560;28;20389;-55
2022/09/24 07:44:36;;;;;;;14.30;9.18;;;15.50;99.90;;;;;;5054274;28;20531;-55
2022/09/24 07:47:02;;;;;;;14.95;9.05;;;15.40;1.00;;;;;;5054012;28;20415;-55
2022/09/24 07:49:31;;;;;;;14.52;8.25;;;15.50;1.00;;;;;;5057024;28;20391;-55
2022/09/24 07:51:56;;;;;;;17.55;9.57;;;15.40;80.20;;;;;;5053780;28;20407;-55
2022/09/24 07:54:22;;;;;;;14.90;8.90;;;15.50;1.00;;;;;;5058610;28;20406;-55
2022/09/24 07:56:48;;;;;;;14.30;9.02;;;15.60;99.90;;;;;;5058123;28;20450;-56
2022/09/24 07:59:13;;;;;;;16.30;8.95;;;15.70;1.00;;;;;;5062620;28;20451;-55
2022/09/24 08:01:39;;;;;;;14.67;8.63;;;15.80;99.90;;;;;;5062039;28;20403;-55
2022/09/24 08:04:06;;;;;;;17.13;8.68;;;15.70;99.90;;;;;;5042868;28;20986;-55
2022/09/24 08:06:34;;;;;;;16.88;9.15;;;15.80;1.00;;;;;;5060725;28;20397;-55
2022/09/24 08:09:00;;;;;;;14.80;8.55;;;15.70;4.20;;;;;;5060117;28;20397;-55
2022/09/24 08:11:28;;;;;;;14.68;9.15;;;15.70;99.90;;;;;;5070350;28;20396;-54
2022/09/24 08:13:55;;;;;;;16.63;9.48;;;15.80;99.90;;;;;;5052370;28;20513;-55
2022/09/24 08:16:20;;;;;;;15.82;8.68;;;15.90;99.90;;;;;;5051486;28;20420;-54
2022/09/24 08:18:46;;;;;;;18.25;9.10;;;16.10;1.00;;;;;;5059566;28;20789;-55
2022/09/24 08:21:14;;;;;;;13.83;8.90;;;16.10;1.00;;;;;;5059577;28;20408;-54
2022/09/24 08:23:41;;;;;;;15.53;9.30;;;16.10;99.90;;;;;;5059107;28;20451;-54
2022/09/24 08:26:07;;;;;;;15.32;9.20;;;16.20;58.90;;;;;;5057999;28;20410;-54
2022/09/24 08:28:33;;;;;;;16.10;8.77;;;16.30;1.00;;;;;;5055752;28;20496;-54
2022/09/24 08:31:07;;;;;;;15.17;9.07;;;16.50;99.90;;;;;;5063057;28;20415;-55
2022/09/24 08:33:34;;;;;;;16.83;9.30;;;16.40;1.00;;;;;;5058709;28;20926;-55
2022/09/24 08:36:01;;;;;;;14.83;8.90;;;16.30;1.00;;;;;;5054771;28;20419;-54
2022/09/24 08:38:27;;;;;;;21.40;9.60;;;16.50;48.60;;;;;;5052011;28;20386;-54
2022/09/24 08:41:11;;;;;;;13.63;8.50;;;16.50;58.50;;;;;;5057152;28;20387;-55
2022/09/24 08:43:54;;;;;;;15.48;9.18;;;16.60;1.00;;;;;;5059886;28;20397;-54
2022/09/24 08:49:39;;;;;;;14.32;7.97;;;17.60;99.90;;;;;;5052138;28;20459;-52
2022/09/24 08:52:17;;;;;;;13.30;8.00;;;18.40;1.00;;;;;;5051711;28;21175;-53
2022/09/24 08:54:44;;;;;;;13.65;8.15;;;18.60;99.90;;;;;;5055415;28;21034;-52
2022/09/24 08:57:16;;;;;;;14.23;8.38;;;18.80;99.90;;;;;;5059526;28;20434;-52
2022/09/24 08:59:48;;;;;;;12.82;7.60;;;19.50;96.70;;;;;;5059698;28;20417;-53
2022/09/24 09:02:33;;;;;;;13.75;7.40;;;19.70;99.90;;;;;;5057789;28;20398;-53
2022/09/24 09:05:26;;;;;;;13.25;7.72;;;20.40;99.90;;;;;;5051634;28;20410;-54
2022/09/24 09:08:12;;;;;;;12.40;7.67;;;20.30;15.40;;;;;;5062026;28;20405;-54
2022/09/24 09:10:42;;;;;;;14.40;8.07;;;21.00;1.00;;;;;;5051862;28;20731;-53
2022/09/24 09:13:23;;;;;;;13.35;6.95;;;21.00;1.00;;;;;;5054563;28;21064;-53
2022/09/24 09:16:04;;;;;;;12.82;7.70;;;22.00;1.00;;;;;;5052732;28;20450;-54
2022/09/24 09:18:36;;;;;;;15.13;10.20;;;23.40;1.00;;;;;;5056207;28;20491;-54
2022/09/24 09:21:40;;;;;;;15.77;11.93;;;25.00;99.90;;;;;;5061760;28;20908;-53
2022/09/24 09:24:19;;;;;;;12.17;9.87;;;26.80;99.90;;;;;;5063738;28;20403;-53
2022/09/24 09:26:53;;;;;;;13.70;10.13;;;26.70;99.90;;;;;;5065416;28;20411;-54
2022/09/24 09:29:20;;;;;;;14.05;9.95;;;25.60;99.90;;;;;;5067018;28;20404;-53
2022/09/24 09:32:12;;;;;;;12.65;8.80;;;24.80;99.90;;;;;;5068486;28;20399;-55
2022/09/24 09:35:10;;;;;;;12.55;7.80;;;24.10;99.90;;;;;;5066878;28;20425;-53
2022/09/24 09:37:46;;;;;;;11.90;8.30;;;24.00;99.90;;;;;;5057007;28;20504;-54
2022/09/24 09:40:33;;;;;;;11.35;8.05;;;23.10;99.90;;;;;;5067502;28;20376;-54
2022/09/24 09:43:09;;;;;;;13.27;7.97;;;22.50;99.90;;;;;;5045501;28;20764;-53
2022/09/24 09:45:39;;;;;;;10.82;6.30;;;21.80;99.90;;;;;;5069492;28;20839;-53
2022/09/24 09:48:07;;;;;;;11.35;6.15;;;21.80;99.90;;;;;;5069009;28;20435;-53
2022/09/24 09:50:58;;;;;;;8.80;4.78;;;21.30;99.90;;;;;;5069882;28;20457;-53
2022/09/24 09:53:25;;;;;;;11.80;5.60;;;20.90;99.90;;;;;;5067777;28;20414;-53
2022/09/24 09:55:59;;;;;;;8.90;4.95;;;20.30;99.90;;;;;;5067746;28;20946;-53
2022/09/24 09:58:27;;;;;;;9.55;4.70;;;20.20;99.90;;;;;;5069114;28;20922;-53
2022/09/24 10:01:04;;;;;;;9.45;5.20;;;20.00;99.90;;;;;;5068394;28;20407;-53
2022/09/24 10:03:34;;;;;;;8.95;4.70;;;19.60;99.90;;;;;;5068965;28;20399;-54
2022/09/24 10:06:03;;;;;;;9.55;4.80;;;19.50;99.90;;;;;;5061465;28;20407;-53
2022/09/24 10:08:29;;;;;;;9.70;4.80;;;19.50;99.90;;;;;;5068958;28;20711;-52
2022/09/24 10:10:56;;;;;;;9.40;4.75;;;19.50;99.90;;;;;;5066209;28;20453;-53
2022/09/24 10:13:23;;;;;;;9.10;4.70;;;19.70;1.00;;;;;;5063758;28;20416;-53
2022/09/24 10:16:00;;;;;;;9.00;4.00;;;18.70;1.00;;;;;;5068022;28;20380;-53
2022/09/24 10:18:35;;;;;;;9.23;4.70;;;19.50;99.90;;;;;;5066744;28;20397;-53
2022/09/24 10:21:08;;;;;;;9.52;4.30;;;19.40;99.90;;;;;;5065182;28;20391;-53
2022/09/24 10:23:43;;;;;;;12.05;4.55;;;19.30;99.90;;;;;;5066320;28;20440;-52
2022/09/24 10:26:09;;;;;;;8.75;4.10;;;19.10;99.90;;;;;;5059780;28;20484;-53
2022/09/24 10:31:35;;;;;;;7.10;3.80;;;18.90;99.90;;;;;;5066378;28;20447;-53
2022/09/24 10:34:03;;;;;;;11.90;4.00;;;18.90;99.90;;;;;;5068347;28;20384;-52
2022/09/24 10:36:31;;;;;;;9.85;4.93;;;18.60;99.90;;;;;;5062696;28;20403;-52
2022/09/24 10:39:15;;;;;;;19.00;10.55;;;18.50;62.80;;;;;;5066769;28;20433;-52
2022/09/24 10:41:52;;;;;;;16.23;10.25;;;18.70;99.90;;;;;;5067252;28;20404;-52
2022/09/24 10:44:20;;;;;;;15.18;9.90;;;18.80;1.00;;;;;;5068529;28;20791;-52
2022/09/24 10:46:45;;;;;;;16.95;9.50;;;18.90;1.00;;;;;;5068804;28;20410;-54
2022/09/24 10:49:42;;;;;;;17.75;9.15;;;18.80;99.90;;;;;;5066700;28;20428;-52
2022/09/24 10:52:33;;;;;;;16.47;10.23;;;18.70;99.90;;;;;;5016092;28;20415;-53
2022/09/24 10:55:26;;;;;;;14.67;9.33;;;18.50;1.00;;;;;;5065696;28;20882;-52
2022/09/24 10:57:58;;;;;;;17.07;9.20;;;19.20;99.90;;;;;;5067231;28;20422;-53
2022/09/24 11:00:35;;;;;;;16.35;9.73;;;20.00;1.00;;;;;;5060893;28;20417;-52
2022/09/24 11:03:08;;;;;;;15.30;9.90;;;20.50;99.90;;;;;;5058559;28;20381;-53
2022/09/24 11:05:43;;;;;;;16.30;9.70;;;20.50;99.90;;;;;;5055626;28;20406;-53
2022/09/24 11:08:33;;;;;;;13.38;7.60;;;20.60;99.90;;;;;;5064056;28;20398;-54
2022/09/24 11:11:13;;;;;;;15.07;7.10;;;20.60;1.00;;;;;;5064864;28;21024;-54
2022/09/24 11:13:54;;;;;;;9.60;5.50;;;20.70;1.00;;;;;;5064925;28;20682;-53
2022/09/24 11:16:39;;;;;;;10.70;5.93;;;20.70;1.00;;;;;;5068504;28;20876;-54
2022/09/24 11:19:22;;;;;;;10.30;6.03;;;20.40;1.00;;;;;;5063589;28;20419;-54
2022/09/24 11:22:07;;;;;;;13.40;6.50;;;20.40;1.00;;;;;;5065129;28;20865;-55
2022/09/24 11:25:05;;;;;;;12.40;6.40;;;20.40;1.00;;;;;;5053318;28;20769;-54
2022/09/24 11:27:49;;;;;;;11.55;5.25;;;20.50;1.00;;;;;;5066622;28;20554;-54
2022/09/24 11:30:23;;;;;;;9.32;4.28;;;20.80;1.00;;;;;;5048916;28;20413;-54
2022/09/24 11:33:03;;;;;;;8.80;4.20;;;21.00;1.00;;;;;;5056149;28;20411;-55
2022/09/24 11:35:50;;;;;;;9.70;4.10;;;20.80;1.00;;;;;;5069278;28;20383;-54
2022/09/24 11:38:39;;;;;;;8.60;4.00;;;20.70;1.00;;;;;;5069111;28;20414;-54
2022/09/24 11:41:27;;;;;;;8.40;3.67;;;20.40;1.00;;;;;;5068247;28;20445;-54
2022/09/24 11:44:30;;;;;;;9.00;3.60;;;20.00;1.00;;;;;;5067839;28;20388;-54
2022/09/24 11:47:24;;;;;;;8.23;3.45;;;20.00;1.00;;;;;;5051954;28;20420;-54
2022/09/24 11:50:00;;;;;;;9.10;4.00;;;19.70;1.00;;;;;;5067980;28;20388;-54
2022/09/24 11:52:44;;;;;;;8.50;3.60;;;19.60;96.70;;;;;;5068844;28;20415;-53
2022/09/24 11:55:21;;;;;;;9.27;3.83;;;19.50;81.10;;;;;;5068060;28;20391;-54
2022/09/24 11:58:02;;;;;;;8.40;3.70;;;19.50;39.40;;;;;;5068251;28;20438;-55
2022/09/24 12:00:36;;;;;;;8.27;4.10;;;19.50;99.90;;;;;;5068960;28;20395;-53
2022/09/24 12:03:07;;;;;;;8.95;4.20;;;19.30;1.00;;;;;;5070241;28;20388;-54
2022/09/24 12:05:52;;;;;;;9.88;3.97;;;19.20;1.00;;;;;;5062302;28;20827;-54
2022/09/24 12:08:26;;;;;;;10.45;4.40;;;19.10;99.90;;;;;;5069359;28;20444;-54
2022/09/24 12:10:58;;;;;;;8.07;3.85;;;18.90;1.00;;;;;;5071091;28;20474;-53
2022/09/24 12:13:37;;;;;;;8.77;4.55;;;18.80;99.90;;;;;;5068076;28;20531;-53
2022/09/24 12:16:12;;;;;;;9.57;4.40;;;18.70;99.90;;;;;;5064723;28;20889;-53
2022/09/24 12:19:09;;;;;;;9.38;4.60;;;18.60;65.90;;;;;;5066099;28;20403;-53
2022/09/24 12:21:40;;;;;;;9.98;4.60;;;18.50;99.90;;;;;;5064891;28;20396;-53
2022/09/24 12:24:27;;;;;;;10.82;5.05;;;18.50;1.00;;;;;;5064607;28;20534;-54
2022/09/24 12:26:57;;;;;;;8.60;4.25;;;18.40;1.00;;;;;;5064124;28;20423;-54
2022/09/24 12:32:55;;;;;;;9.20;4.22;;;18.20;99.90;;;;;;5070721;28;20457;-53
2022/09/24 12:35:56;;;;;;;10.25;5.00;;;18.00;1.00;;;;;;5063808;28;20428;-53
2022/09/24 12:38:35;;;;;;;10.18;4.68;;;17.90;1.00;;;;;;5014281;28;20408;-53
2022/09/24 12:41:27;;;;;;;10.23;5.20;;;17.70;1.00;;;;;;5064806;28;20432;-53
2022/09/24 12:43:55;;;;;;;11.40;5.27;;;17.70;1.00;;;;;;5058066;28;20392;-53
2022/09/24 12:46:37;;;;;;;13.25;7.07;;;17.80;1.00;;;;;;5064958;28;20479;-53
2022/09/24 12:49:14;;;;;;;15.95;9.60;;;17.70;1.00;;;;;;5066300;28;20404;-53
2022/09/24 12:51:40;;;;;;;14.85;9.32;;;17.60;1.00;;;;;;5068236;28;20376;-53
2022/09/24 12:54:23;;;;;;;15.95;9.43;;;17.60;11.40;;;;;;5069654;28;20470;-53
2022/09/24 12:56:48;;;;;;;15.05;8.75;;;17.60;46.20;;;;;;5059016;28;20765;-54
2022/09/24 12:59:27;;;;;;;18.40;10.90;;;17.60;75.80;;;;;;5064721;28;20431;-53
2022/09/24 13:01:54;;;;;;;20.48;12.05;;;17.40;1.00;;;;;;5067706;28;20838;-53
2022/09/24 13:04:19;;;;;;;20.35;12.20;;;17.30;1.00;;;;;;5070402;28;20392;-53
2022/09/24 13:06:47;;;;;;;24.27;14.57;;;17.10;32.30;;;;;;5070436;28;20384;-53
2022/09/24 13:09:23;;;;;;;22.02;13.57;;;17.20;11.50;;;;;;5066075;28;20396;-53
2022/09/24 13:12:10;;;;;;;24.70;15.70;;;17.30;38.10;;;;;;5065063;28;20418;-55
2022/09/24 13:14:36;;;;;;;20.90;13.70;;;17.50;46.70;;;;;;5066333;28;20400;-53